createdAt,value
2023-11-01T00:01:11.083Z,100387.38
2023-11-01T00:03:38.676Z,100389.03
2023-11-01T00:06:06.281Z,100400.28
2023-11-01T00:08:33.312Z,100402.00
2023-11-01T00:11:00.228Z,100403.69
2023-11-01T00:13:28.216Z,100407.09
2023-11-01T00:15:55.140Z,100408.84
2023-11-01T00:18:22.181Z,100404.47
2023-11-01T00:20:49.178Z,100410.47
2023-11-01T00:23:16.345Z,100407.03
2023-11-01T00:25:43.264Z,100412.16
2023-11-01T00:28:10.153Z,100411.25
2023-11-01T00:30:37.086Z,100409.47
2023-11-01T00:33:04.201Z,100417.22
2023-11-01T00:35:31.180Z,100414.59
2023-11-01T00:37:58.079Z,100412.75
2023-11-01T00:40:24.984Z,100428.34
2023-11-01T00:42:52.266Z,100442.16
2023-11-01T00:45:19.178Z,100438.66
2023-11-01T00:47:46.194Z,100439.50
2023-11-01T00:50:13.172Z,100439.50
2023-11-01T00:52:40.150Z,100439.47
2023-11-01T00:55:07.849Z,100427.28
2023-11-01T00:57:35.107Z,100441.16
2023-11-01T01:00:02.563Z,100437.66
2023-11-01T01:02:29.594Z,100433.34
2023-11-01T01:04:57.382Z,100435.84
2023-11-01T01:07:24.331Z,100439.31
2023-11-01T01:09:51.405Z,100434.09
2023-11-01T01:12:18.308Z,100431.41
2023-11-01T01:14:45.207Z,100450.41
2023-11-01T01:17:12.456Z,100444.31
2023-11-01T01:19:39.350Z,100454.63
2023-11-01T01:22:06.417Z,100459.72
2023-11-01T01:24:33.332Z,100449.38
2023-11-01T01:27:00.245Z,100457.13
2023-11-01T01:29:27.151Z,100454.50
2023-11-01T01:31:54.128Z,100456.19
2023-11-01T01:34:21.190Z,100457.91
2023-11-01T01:36:48.080Z,100462.16
2023-11-01T01:39:14.985Z,100464.75
2023-11-01T01:41:41.997Z,100459.53
2023-11-01T01:44:09.209Z,100461.22
2023-11-01T01:46:36.563Z,100461.22
2023-11-01T01:49:03.971Z,100454.28
2023-11-01T01:51:30.880Z,100451.69
2023-11-01T01:53:58.536Z,100443.94
2023-11-01T01:56:26.159Z,100449.09
2023-11-01T01:58:53.529Z,100447.38
2023-11-01T02:01:32.418Z,100447.38
2023-11-01T02:04:05.887Z,100453.47
2023-11-01T02:06:32.867Z,100447.34
2023-11-01T02:08:59.829Z,100453.47
2023-11-01T02:11:26.785Z,100455.13
2023-11-01T02:13:53.708Z,100449.97
2023-11-01T02:16:20.623Z,100458.59
2023-11-01T02:18:47.533Z,100451.69
2023-11-01T02:21:14.447Z,100459.41
2023-11-01T02:23:44.012Z,100459.41
2023-11-01T02:26:11.054Z,100465.41
2023-11-01T02:28:37.963Z,100461.13
2023-11-01T02:31:06.007Z,100455.94
2023-11-01T02:33:32.898Z,100457.69
2023-11-01T02:35:59.789Z,100453.38
2023-11-01T02:38:26.764Z,100457.69
2023-11-01T02:40:53.872Z,100466.28
2023-11-01T02:43:20.789Z,100458.38
2023-11-01T02:45:47.776Z,100466.28
2023-11-01T02:48:14.775Z,100464.53
2023-11-01T02:50:41.880Z,100460.25
2023-11-01T02:53:08.857Z,100457.59
2023-11-01T02:55:35.796Z,100463.66
2023-11-01T02:58:04.089Z,100453.31
2023-11-01T03:00:31.028Z,100446.44
2023-11-01T03:02:58.586Z,100452.41
2023-11-01T03:05:26.947Z,100455.00
2023-11-01T03:07:55.179Z,100450.69
2023-11-01T03:10:22.304Z,100444.63
2023-11-01T03:12:49.443Z,100449.78
2023-11-01T03:15:16.407Z,100450.63
2023-11-01T03:17:43.742Z,100459.22
2023-11-01T03:20:13.875Z,100471.22
2023-11-01T03:22:40.998Z,100468.66
2023-11-01T03:25:09.821Z,100472.09
2023-11-01T03:27:36.972Z,100466.06
2023-11-01T03:30:04.107Z,100474.66
2023-11-01T03:32:31.195Z,100477.25
2023-11-01T03:34:59.057Z,100474.63
2023-11-01T03:37:26.933Z,100485.81
2023-11-01T03:39:53.899Z,100490.94
2023-11-01T03:42:22.274Z,100490.94
2023-11-01T03:44:50.944Z,100488.34
2023-11-01T03:47:18.132Z,100492.63
2023-11-01T03:49:45.892Z,100487.41
2023-11-01T03:52:12.953Z,100496.09
2023-11-01T03:54:39.969Z,100494.34
2023-11-01T03:57:07.535Z,100489.22
2023-11-01T03:59:34.566Z,100495.22
2023-11-01T04:02:01.880Z,100491.81
2023-11-01T04:04:28.823Z,100495.31
2023-11-01T04:06:55.798Z,100489.28
2023-11-01T04:09:22.735Z,100494.59
2023-11-01T04:11:49.690Z,100488.59
2023-11-01T04:14:16.684Z,100493.00
2023-11-01T04:16:43.646Z,100489.59
2023-11-01T04:19:12.422Z,100484.47
2023-11-01T04:21:39.620Z,100472.38
2023-11-01T04:24:06.815Z,100478.50
2023-11-01T04:26:34.885Z,100481.13
2023-11-01T04:29:01.843Z,100490.66
2023-11-01T04:31:28.808Z,100485.53
2023-11-01T04:33:55.873Z,100493.31
2023-11-01T04:36:26.093Z,100495.94
2023-11-01T04:38:54.459Z,100497.69
2023-11-01T04:41:22.806Z,100491.72
2023-11-01T04:43:49.908Z,100491.78
2023-11-01T04:46:16.976Z,100495.34
2023-11-01T04:48:43.939Z,100492.00
2023-11-01T04:51:11.081Z,100497.28
2023-11-01T04:53:38.853Z,100488.75
2023-11-01T04:56:07.164Z,100484.53
2023-11-01T04:58:36.264Z,100486.28
2023-11-01T05:01:06.408Z,100492.31
2023-11-01T05:03:36.279Z,100478.44
2023-11-01T05:06:04.347Z,100482.88
2023-11-01T05:08:31.317Z,100486.38
2023-11-01T05:10:58.486Z,100488.19
2023-11-01T05:13:25.411Z,100486.53
2023-11-01T05:15:53.184Z,100477.91
2023-11-01T05:18:20.266Z,100487.47
2023-11-01T05:20:47.501Z,100495.34
2023-11-01T05:23:14.452Z,100491.06
2023-11-01T05:25:41.659Z,100485.06
2023-11-01T05:28:08.747Z,100489.41
2023-11-01T05:30:35.727Z,100491.13
2023-11-01T05:33:03.067Z,100482.44
2023-11-01T05:35:30.064Z,100495.50
2023-11-01T05:37:56.987Z,100486.03
2023-11-01T05:40:23.955Z,100497.28
2023-11-01T05:42:50.897Z,100492.97
2023-11-01T05:45:18.524Z,100497.34
2023-11-01T05:47:53.588Z,100497.41
2023-11-01T05:50:25.951Z,100502.63
2023-11-01T05:52:55.336Z,100501.84
2023-11-01T05:55:30.081Z,100502.75
2023-11-01T05:58:09.406Z,100495.88
2023-11-01T06:00:37.595Z,100489.03
2023-11-01T06:03:07.932Z,100488.13
2023-11-01T06:05:36.706Z,100502.91
2023-11-01T06:08:04.567Z,100491.69
2023-11-01T06:10:31.899Z,100512.53
2023-11-01T06:12:59.300Z,100508.25
2023-11-01T06:15:26.273Z,100523.81
2023-11-01T06:17:53.590Z,100510.94
2023-11-01T06:20:20.961Z,100516.97
2023-11-01T06:22:47.996Z,100519.66
2023-11-01T06:25:16.849Z,100510.16
2023-11-01T06:27:43.966Z,100511.06
2023-11-01T06:30:11.451Z,100517.16
2023-11-01T06:32:38.575Z,100526.75
2023-11-01T06:35:06.323Z,100519.00
2023-11-01T06:37:33.253Z,100517.31
2023-11-01T06:40:00.287Z,100514.75
2023-11-01T06:42:27.311Z,100513.00
2023-11-01T06:44:54.590Z,100528.66
2023-11-01T06:47:21.632Z,100533.00
2023-11-01T06:49:48.629Z,100527.00
2023-11-01T06:52:15.848Z,100526.22
2023-11-01T06:54:44.400Z,100528.84
2023-11-01T06:57:11.967Z,100525.41
2023-11-01T06:59:43.130Z,100510.72
2023-11-01T07:02:10.780Z,100520.25
2023-11-01T07:04:37.733Z,100523.81
2023-11-01T07:07:04.880Z,100529.88
2023-11-01T07:09:32.841Z,100522.13
2023-11-01T07:11:59.849Z,100508.31
2023-11-01T07:14:26.781Z,100494.50
2023-11-01T07:16:53.717Z,100502.38
2023-11-01T07:19:20.612Z,100511.06
2023-11-01T07:21:47.881Z,100512.84
2023-11-01T07:24:14.909Z,100510.28
2023-11-01T07:26:41.950Z,100513.81
2023-11-01T07:29:08.884Z,100506.94
2023-11-01T07:31:35.843Z,100507.00
2023-11-01T07:34:02.779Z,100506.16
2023-11-01T07:36:29.720Z,100506.16
2023-11-01T07:38:56.734Z,100515.75
2023-11-01T07:41:23.671Z,100512.31
2023-11-01T07:43:50.599Z,100509.72
2023-11-01T07:46:17.572Z,100499.38
2023-11-01T07:48:44.679Z,100508.91
2023-11-01T07:51:11.824Z,100487.25
2023-11-01T07:53:38.750Z,100502.03
2023-11-01T07:56:06.382Z,100499.44
2023-11-01T07:58:33.756Z,100476.94
2023-11-01T08:01:01.147Z,100473.50
2023-11-01T08:03:28.425Z,100488.25
2023-11-01T08:05:55.528Z,100497.81
2023-11-01T08:08:22.533Z,100503.91
2023-11-01T08:10:49.679Z,100495.25
2023-11-01T08:13:16.752Z,100507.34
2023-11-01T08:15:44.133Z,100502.19
2023-11-01T08:18:11.565Z,100509.09
2023-11-01T08:20:39.811Z,100499.66
2023-11-01T08:23:07.213Z,100504.84
2023-11-01T08:25:35.517Z,100504.81
2023-11-01T08:28:03.794Z,100496.97
2023-11-01T08:30:30.689Z,100501.38
2023-11-01T08:32:57.790Z,100497.94
2023-11-01T08:35:24.995Z,100493.63
2023-11-01T08:37:52.169Z,100488.47
2023-11-01T08:40:19.124Z,100485.03
2023-11-01T08:42:46.036Z,100480.72
2023-11-01T08:45:12.985Z,100490.28
2023-11-01T08:47:43.902Z,100486.81
2023-11-01T08:50:15.229Z,100482.53
2023-11-01T08:52:46.002Z,100488.63
2023-11-01T08:55:14.630Z,100471.31
2023-11-01T08:57:45.955Z,100466.09
2023-11-01T09:00:15.009Z,100476.53
2023-11-01T09:02:42.093Z,100483.50
2023-11-01T09:05:09.540Z,100485.25
2023-11-01T09:07:37.678Z,100491.31
2023-11-01T09:10:05.551Z,100480.03
2023-11-01T09:12:32.541Z,100485.25
2023-11-01T09:14:59.587Z,100483.50
2023-11-01T09:17:26.735Z,100483.56
2023-11-01T09:19:53.714Z,100471.41
2023-11-01T09:22:21.557Z,100466.22
2023-11-01T09:24:48.620Z,100471.47
2023-11-01T09:27:15.549Z,100473.19
2023-11-01T09:29:42.485Z,100463.69
2023-11-01T09:32:09.461Z,100476.72
2023-11-01T09:34:36.392Z,100474.13
2023-11-01T09:37:03.293Z,100471.56
2023-11-01T09:39:31.697Z,100470.72
2023-11-01T09:42:09.124Z,100462.94
2023-11-01T09:44:37.638Z,100462.09
2023-11-01T09:47:05.367Z,100468.16
2023-11-01T09:49:32.581Z,100460.38
2023-11-01T09:52:04.222Z,100453.44
2023-11-01T09:54:31.190Z,100451.72
2023-11-01T09:56:58.880Z,100449.09
2023-11-01T09:59:26.025Z,100449.13
2023-11-01T10:01:53.006Z,100447.38
2023-11-01T10:04:20.639Z,100442.19
2023-11-01T10:06:47.658Z,100438.69
2023-11-01T10:09:14.732Z,100441.31
2023-11-01T10:11:44.623Z,100446.53
2023-11-01T10:14:11.805Z,100428.28
2023-11-01T10:16:40.414Z,100419.59
2023-11-01T10:19:08.009Z,100416.97
2023-11-01T10:21:35.114Z,100400.44
2023-11-01T10:24:04.104Z,100392.59
2023-11-01T10:26:32.206Z,100398.66
2023-11-01T10:29:00.970Z,100389.94
2023-11-01T10:31:27.901Z,100396.94
2023-11-01T10:33:54.985Z,100396.09
2023-11-01T10:36:22.353Z,100389.16
2023-11-01T10:38:54.524Z,100363.13
2023-11-01T10:41:21.913Z,100380.47
2023-11-01T10:43:49.382Z,100377.84
2023-11-01T10:46:17.602Z,100374.41
2023-11-01T10:48:47.556Z,100382.22
2023-11-01T10:51:15.361Z,100354.44
2023-11-01T10:53:43.116Z,100344.88
2023-11-01T10:56:10.222Z,100349.22
2023-11-01T10:58:43.688Z,100344.84
2023-11-01T11:01:22.215Z,100345.66
2023-11-01T11:04:03.875Z,100343.91
2023-11-01T11:06:49.513Z,100341.22
2023-11-01T11:09:25.152Z,100331.63
2023-11-01T11:12:22.571Z,100335.91
2023-11-01T11:14:52.014Z,100327.16
2023-11-01T11:17:25.100Z,100322.75
2023-11-01T11:20:07.229Z,100313.06
2023-11-01T11:23:09.314Z,100314.72
2023-11-01T11:25:39.358Z,100305.97
2023-11-01T11:28:10.453Z,100302.41
2023-11-01T11:30:46.879Z,100303.19
2023-11-01T11:33:15.970Z,100297.00
2023-11-01T11:35:43.320Z,100296.94
2023-11-01T11:38:36.228Z,100294.31
2023-11-01T11:41:23.208Z,100289.94
2023-11-01T11:44:09.536Z,100283.84
2023-11-01T11:46:43.845Z,100289.06
2023-11-01T11:49:38.671Z,100289.06
2023-11-01T11:52:10.117Z,100283.81
2023-11-01T11:54:37.315Z,100291.56
2023-11-01T11:57:12.195Z,100292.38
2023-11-01T11:59:43.537Z,100286.25
2023-11-01T12:02:13.528Z,100285.34
2023-11-01T12:04:42.106Z,100282.69
2023-11-01T12:07:09.555Z,100279.97
2023-11-01T12:09:36.459Z,100282.59
2023-11-01T12:12:14.474Z,100282.53
2023-11-01T12:14:42.110Z,100265.91
2023-11-01T12:17:09.242Z,100262.38
2023-11-01T12:19:46.732Z,100268.47
2023-11-01T12:22:15.399Z,100254.53
2023-11-01T12:24:45.936Z,100258.81
2023-11-01T12:27:19.689Z,100253.59
2023-11-01T12:29:53.622Z,100253.63
2023-11-01T12:32:29.386Z,100246.66
2023-11-01T12:34:59.055Z,100252.75
2023-11-01T12:37:31.070Z,100244.88
2023-11-01T12:40:12.883Z,100246.63
2023-11-01T12:42:44.733Z,100250.97
2023-11-01T12:45:12.368Z,100246.59
2023-11-01T12:47:52.452Z,100232.63
2023-11-01T12:50:28.984Z,100237.78
2023-11-01T12:52:56.264Z,100213.47
2023-11-01T12:55:24.920Z,100233.34
2023-11-01T12:57:56.882Z,100226.31
2023-11-01T13:00:30.126Z,100218.47
2023-11-01T13:03:03.795Z,100227.13
2023-11-01T13:05:31.282Z,100222.75
2023-11-01T13:07:59.228Z,100218.31
2023-11-01T13:10:26.337Z,100218.28
2023-11-01T13:12:53.616Z,100208.59
2023-11-01T13:15:20.852Z,100213.75
2023-11-01T13:17:49.622Z,100219.81
2023-11-01T13:20:16.944Z,100226.72
2023-11-01T13:22:43.927Z,100208.34
2023-11-01T13:25:12.062Z,100204.75
2023-11-01T13:27:38.977Z,100198.63
2023-11-01T13:30:06.645Z,100202.91
2023-11-01T13:32:33.714Z,100200.28
2023-11-01T13:35:01.016Z,100192.38
2023-11-01T13:37:32.600Z,100188.03
2023-11-01T13:39:59.556Z,100181.88
2023-11-01T13:42:26.566Z,100180.13
2023-11-01T13:44:54.023Z,100188.00
2023-11-01T13:47:23.891Z,100185.44
2023-11-01T13:49:52.521Z,100192.34
2023-11-01T13:52:19.622Z,100180.94
2023-11-01T13:54:46.577Z,100170.47
2023-11-01T13:57:13.558Z,100173.91
2023-11-01T13:59:40.542Z,100178.16
2023-11-01T14:02:07.542Z,100165.06
2023-11-01T14:04:34.657Z,100158.06
2023-11-01T14:07:01.644Z,100156.28
2023-11-01T14:09:28.567Z,100158.06
2023-11-01T14:11:55.671Z,100151.06
2023-11-01T14:14:24.018Z,100154.59
2023-11-01T14:16:52.068Z,100150.28
2023-11-01T14:19:19.118Z,100132.94
2023-11-01T14:21:46.005Z,100138.97
2023-11-01T14:24:14.743Z,100133.78
2023-11-01T14:26:42.453Z,100132.91
2023-11-01T14:29:09.359Z,100132.03
2023-11-01T14:31:36.316Z,100132.03
2023-11-01T14:34:03.292Z,100129.47
2023-11-01T14:36:30.212Z,100119.91
2023-11-01T14:38:57.154Z,100125.03
2023-11-01T14:41:24.049Z,100116.34
2023-11-01T14:43:51.196Z,100119.78
2023-11-01T14:46:18.176Z,100111.91
2023-11-01T14:48:45.371Z,100109.25
2023-11-01T14:51:12.763Z,100106.63
2023-11-01T14:53:40.744Z,100106.56
2023-11-01T14:56:16.026Z,100104.84
2023-11-01T14:58:45.457Z,100099.56
2023-11-01T15:01:12.466Z,100113.50
2023-11-01T15:03:43.294Z,100095.16
2023-11-01T15:06:12.079Z,100090.75
2023-11-01T15:08:42.325Z,100088.16
2023-11-01T15:11:11.311Z,100084.63
2023-11-01T15:13:38.854Z,100081.97
2023-11-01T15:16:06.370Z,100085.47
2023-11-01T15:18:33.475Z,100076.81
2023-11-01T15:21:00.627Z,100072.38
2023-11-01T15:23:27.598Z,100075.00
2023-11-01T15:25:54.516Z,100068.00
2023-11-01T15:28:21.429Z,100068.00
2023-11-01T15:30:48.390Z,100066.28
2023-11-01T15:33:15.755Z,100058.41
2023-11-01T15:35:43.754Z,100047.94
2023-11-01T15:38:10.928Z,100047.88
2023-11-01T15:40:37.890Z,100053.13
2023-11-01T15:43:04.852Z,100056.59
2023-11-01T15:45:31.810Z,100051.41
2023-11-01T15:47:58.826Z,100040.16
2023-11-01T15:50:25.796Z,100049.66
2023-11-01T15:52:52.728Z,100054.03
2023-11-01T15:55:19.669Z,100047.94
2023-11-01T15:57:46.644Z,100049.72
2023-11-01T16:00:14.282Z,100037.47
2023-11-01T16:02:41.442Z,100050.53
2023-11-01T16:05:08.796Z,100045.31
2023-11-01T16:07:35.894Z,100042.69
2023-11-01T16:10:03.603Z,100034.78
2023-11-01T16:12:30.604Z,100038.25
2023-11-01T16:14:57.625Z,100028.69
2023-11-01T16:17:24.556Z,100036.47
2023-11-01T16:19:51.574Z,100030.38
2023-11-01T16:22:19.684Z,100030.31
2023-11-01T16:24:46.608Z,100026.00
2023-11-01T16:27:13.680Z,100025.06
2023-11-01T16:29:40.748Z,100032.06
2023-11-01T16:32:07.802Z,100037.25
2023-11-01T16:34:34.797Z,100028.47
2023-11-01T16:37:02.708Z,100027.59
2023-11-01T16:39:29.657Z,100027.50
2023-11-01T16:41:56.588Z,100023.97
2023-11-01T16:44:23.613Z,100021.34
2023-11-01T16:46:50.833Z,100022.19
2023-11-01T16:49:17.784Z,100022.19
2023-11-01T16:51:47.118Z,100016.94
2023-11-01T16:54:15.554Z,100020.41
2023-11-01T16:56:42.890Z,100019.47
2023-11-01T16:59:09.987Z,100008.97
2023-11-01T17:01:36.966Z,100008.06
2023-11-01T17:04:04.530Z,100009.75
2023-11-01T17:06:31.532Z,100013.25
2023-11-01T17:08:58.576Z,100014.09
2023-11-01T17:11:27.011Z,100009.72
2023-11-01T17:13:55.434Z,100015.81
2023-11-01T17:16:22.409Z,100009.69
2023-11-01T17:18:49.427Z,100006.22
2023-11-01T17:21:16.403Z,100007.97
2023-11-01T17:23:47.469Z,100001.88
2023-11-01T17:26:29.079Z,100008.00
2023-11-01T17:28:58.252Z,100006.25
2023-11-01T17:31:46.192Z,100001.91
2023-11-01T17:34:26.279Z,99995.94
2023-11-01T17:36:57.784Z,100006.22
2023-11-01T17:39:30.122Z,100000.16
2023-11-01T17:42:01.699Z,99995.75
2023-11-01T17:44:32.542Z,99997.47
2023-11-01T17:47:12.710Z,100001.91
2023-11-01T17:49:45.458Z,99994.00
2023-11-01T17:52:15.317Z,99996.59
2023-11-01T17:54:42.237Z,99992.22
2023-11-01T17:57:09.313Z,99991.31
2023-11-01T17:59:40.062Z,100000.06
2023-11-01T18:02:28.781Z,99993.97
2023-11-01T18:04:57.436Z,99996.59
2023-11-01T18:07:25.081Z,99985.28
2023-11-01T18:09:53.000Z,99993.06
2023-11-01T18:12:20.496Z,99992.25
2023-11-01T18:14:47.635Z,99985.13
2023-11-01T18:17:15.464Z,99979.84
2023-11-01T18:19:46.517Z,99983.28
2023-11-01T18:22:41.996Z,99977.16
2023-11-01T18:26:12.793Z,99972.75
2023-11-01T18:28:42.308Z,99970.06
2023-11-01T18:31:21.880Z,99970.03
2023-11-01T18:34:30.350Z,99970.13
2023-11-01T18:37:00.039Z,99974.34
2023-11-01T18:39:28.751Z,99981.19
2023-11-01T18:41:56.652Z,99991.59
2023-11-01T18:44:35.201Z,99984.53
2023-11-01T18:47:02.618Z,99985.38
2023-11-01T18:49:55.040Z,99975.75
2023-11-01T18:52:23.845Z,99971.31
2023-11-01T18:54:52.664Z,99974.75
2023-11-01T18:57:34.905Z,99968.63
2023-11-01T19:00:12.706Z,99966.81
2023-11-01T19:02:39.603Z,99966.78
2023-11-01T19:05:09.480Z,99960.66
2023-11-01T19:07:47.606Z,99958.13
2023-11-01T19:10:15.793Z,99955.41
2023-11-01T19:12:43.147Z,99950.09
2023-11-01T19:15:35.322Z,99950.16
2023-11-01T19:18:15.768Z,99946.81
2023-11-01T19:20:46.192Z,99946.72
2023-11-01T19:23:14.462Z,99944.97
2023-11-01T19:25:41.437Z,99942.41
2023-11-01T19:28:08.373Z,99951.16
2023-11-01T19:30:36.918Z,99945.06
2023-11-01T19:33:04.100Z,99934.63
2023-11-01T19:35:31.218Z,99938.13
2023-11-01T19:37:58.145Z,99926.88
2023-11-01T19:40:25.147Z,99934.69
2023-11-01T19:42:52.613Z,99923.34
2023-11-01T19:45:19.763Z,99912.91
2023-11-01T19:47:47.146Z,99912.88
2023-11-01T19:50:23.804Z,99900.81
2023-11-01T19:52:50.804Z,99907.72
2023-11-01T19:55:17.746Z,99902.34
2023-11-01T19:57:44.749Z,99902.34
2023-11-01T20:00:14.005Z,99914.59
2023-11-01T20:02:41.139Z,99903.22
2023-11-01T20:05:12.312Z,99904.03
2023-11-01T20:07:39.688Z,99902.28
2023-11-01T20:10:11.860Z,99891.88
2023-11-01T20:12:40.056Z,99893.56
2023-11-01T20:15:13.571Z,99886.53
2023-11-01T20:17:40.714Z,99894.44
2023-11-01T20:20:10.992Z,99893.56
2023-11-01T20:22:41.524Z,99884.88
2023-11-01T20:25:10.595Z,99886.63
2023-11-01T20:27:37.666Z,99880.47
2023-11-01T20:30:06.637Z,99887.47
2023-11-01T20:32:33.673Z,99876.16
2023-11-01T20:35:01.144Z,99884.00
2023-11-01T20:37:28.361Z,99880.56
2023-11-01T20:39:55.335Z,99882.34
2023-11-01T20:42:23.447Z,99877.19
2023-11-01T20:44:50.455Z,99871.09
2023-11-01T20:47:18.260Z,99868.50
2023-11-01T20:49:45.404Z,99863.34
2023-11-01T20:52:12.416Z,99859.81
2023-11-01T20:54:44.797Z,99848.56
2023-11-01T20:57:13.767Z,99853.78
2023-11-01T20:59:43.515Z,99841.63
2023-11-01T21:02:10.594Z,99854.72
2023-11-01T21:04:37.575Z,99857.38
2023-11-01T21:07:05.127Z,99851.28
2023-11-01T21:09:32.177Z,99847.84
2023-11-01T21:11:59.131Z,99844.41
2023-11-01T21:14:26.942Z,99834.75
2023-11-01T21:16:55.280Z,99834.81
2023-11-01T21:19:22.896Z,99833.09
2023-11-01T21:21:51.474Z,99836.63
2023-11-01T21:24:22.168Z,99839.31
2023-11-01T21:26:49.361Z,99829.78
2023-11-01T21:29:16.400Z,99835.13
2023-11-01T21:31:43.486Z,99837.75
2023-11-01T21:34:10.932Z,99832.50
2023-11-01T21:36:37.968Z,99834.38
2023-11-01T21:39:05.221Z,99821.28
2023-11-01T21:41:32.620Z,99819.63
2023-11-01T21:43:59.745Z,99823.94
2023-11-01T21:46:29.680Z,99815.28
2023-11-01T21:48:57.385Z,99817.03
2023-11-01T21:51:27.244Z,99801.44
2023-11-01T21:53:55.732Z,99790.28
2023-11-01T21:56:32.263Z,99800.63
2023-11-01T21:59:09.382Z,99801.56
2023-11-01T22:01:36.860Z,99790.28
2023-11-01T22:04:22.684Z,99790.38
2023-11-01T22:06:51.427Z,99790.47
2023-11-01T22:09:19.772Z,99795.72
2023-11-01T22:11:53.296Z,99777.56
2023-11-01T22:14:32.734Z,99780.06
2023-11-01T22:17:02.618Z,99773.16
2023-11-01T22:19:42.367Z,99782.72
2023-11-01T22:22:13.361Z,99777.50
2023-11-01T22:24:42.455Z,99779.25
2023-11-01T22:27:11.972Z,99774.09
2023-11-01T22:29:46.978Z,99768.88
2023-11-01T22:32:19.964Z,99775.91
2023-11-01T22:34:48.105Z,99775.03
2023-11-01T22:37:26.672Z,99764.59
2023-11-01T22:39:55.135Z,99770.72
2023-11-01T22:42:31.075Z,99768.97
2023-11-01T22:45:00.206Z,99754.13
2023-11-01T22:47:28.211Z,99748.03
2023-11-01T22:49:56.080Z,99752.44
2023-11-01T22:52:23.230Z,99763.75
2023-11-01T22:54:50.187Z,99753.28
2023-11-01T22:57:17.171Z,99757.66
2023-11-01T22:59:44.418Z,99748.94
2023-11-01T23:02:13.545Z,99752.44
2023-11-01T23:04:41.874Z,99742.88
2023-11-01T23:07:10.774Z,99752.44
2023-11-01T23:09:38.003Z,99755.13
2023-11-01T23:12:05.748Z,99743.84
2023-11-01T23:14:32.654Z,99744.69
2023-11-01T23:16:59.560Z,99746.44
2023-11-01T23:19:26.512Z,99739.53
2023-11-01T23:21:53.533Z,99742.16
2023-11-01T23:24:23.735Z,99737.94
2023-11-01T23:26:55.545Z,99737.09
2023-11-01T23:29:34.895Z,99728.50
2023-11-01T23:32:11.830Z,99729.44
2023-11-01T23:34:48.380Z,99729.56
2023-11-01T23:37:35.057Z,99727.03
2023-11-01T23:40:07.812Z,99723.66
2023-11-01T23:42:34.760Z,99722.81
2023-11-01T23:45:26.019Z,99716.78
2023-11-01T23:47:53.785Z,99703.03
2023-11-01T23:50:39.449Z,99699.56
2023-11-01T23:53:09.353Z,99687.44
2023-11-01T23:55:36.841Z,99679.66
2023-11-01T23:58:06.259Z,99676.28
